sensor_id;sensor_type;location;lat;lon;timestamp;P1;durP1;ratioP1;P2;durP2;ratioP2
83199;SDS011;73092;49.132;8.920;2024-03-29T00:01:34;6.55;;;2.88;;
83199;SDS011;73092;49.132;8.920;2024-03-29T00:04:00;8.00;;;2.57;;
83199;SDS011;73092;49.132;8.920;2024-03-29T00:06:28;8.63;;;3.00;;
83199;SDS011;73092;49.132;8.920;2024-03-29T00:08:53;6.70;;;3.58;;
83199;SDS011;73092;49.132;8.920;2024-03-29T00:11:23;13.27;;;4.15;;
83199;SDS011;73092;49.132;8.920;2024-03-29T00:13:49;6.90;;;3.70;;
83199;SDS011;73092;49.132;8.920;2024-03-29T00:16:14;8.00;;;4.13;;
83199;SDS011;73092;49.132;8.920;2024-03-29T00:18:39;12.90;;;3.63;;
83199;SDS011;73092;49.132;8.920;2024-03-29T00:21:05;5.10;;;2.53;;
83199;SDS011;73092;49.132;8.920;2024-03-29T00:23:33;5.90;;;3.13;;
83199;SDS011;73092;49.132;8.920;2024-03-29T00:25:58;9.73;;;2.83;;
83199;SDS011;73092;49.132;8.920;2024-03-29T00:28:25;5.23;;;2.20;;
83199;SDS011;73092;49.132;8.920;2024-03-29T00:30:50;7.95;;;3.08;;
83199;SDS011;73092;49.132;8.920;2024-03-29T00:33:15;5.13;;;3.30;;
83199;SDS011;73092;49.132;8.920;2024-03-29T00:35:41;5.63;;;2.42;;
83199;SDS011;73092;49.132;8.920;2024-03-29T00:38:06;10.38;;;2.78;;
83199;SDS011;73092;49.132;8.920;2024-03-29T00:40:32;4.43;;;2.17;;
83199;SDS011;73092;49.132;8.920;2024-03-29T00:42:57;4.25;;;2.30;;
83199;SDS011;73092;49.132;8.920;2024-03-29T00:45:23;6.00;;;2.40;;
83199;SDS011;73092;49.132;8.920;2024-03-29T00:47:54;11.88;;;2.53;;
83199;SDS011;73092;49.132;8.920;2024-03-29T00:50:20;2.95;;;2.45;;
83199;SDS011;73092;49.132;8.920;2024-03-29T00:52:45;3.40;;;2.13;;
83199;SDS011;73092;49.132;8.920;2024-03-29T00:57:38;4.80;;;3.03;;
83199;SDS011;73092;49.132;8.920;2024-03-29T01:00:04;8.43;;;2.88;;
83199;SDS011;73092;49.132;8.920;2024-03-29T01:02:30;6.90;;;2.28;;
83199;SDS011;73092;49.132;8.920;2024-03-29T01:04:56;9.27;;;2.17;;
83199;SDS011;73092;49.132;8.920;2024-03-29T01:07:24;2.83;;;2.15;;
83199;SDS011;73092;49.132;8.920;2024-03-29T01:09:53;4.72;;;2.38;;
83199;SDS011;73092;49.132;8.920;2024-03-29T01:12:27;5.40;;;2.20;;
83199;SDS011;73092;49.132;8.920;2024-03-29T01:14:53;5.00;;;2.33;;
83199;SDS011;73092;49.132;8.920;2024-03-29T01:17:18;5.10;;;2.65;;
83199;SDS011;73092;49.132;8.920;2024-03-29T01:19:43;5.63;;;2.60;;
83199;SDS011;73092;49.132;8.920;2024-03-29T01:22:09;5.15;;;3.38;;
83199;SDS011;73092;49.132;8.920;2024-03-29T01:24:34;6.07;;;2.53;;
83199;SDS011;73092;49.132;8.920;2024-03-29T01:27:00;4.30;;;2.63;;
83199;SDS011;73092;49.132;8.920;2024-03-29T01:29:26;6.40;;;2.47;;
83199;SDS011;73092;49.132;8.920;2024-03-29T01:31:52;3.35;;;2.22;;
83199;SDS011;73092;49.132;8.920;2024-03-29T01:34:17;6.23;;;2.10;;
83199;SDS011;73092;49.132;8.920;2024-03-29T01:36:43;3.85;;;2.28;;
83199;SDS011;73092;49.132;8.920;2024-03-29T01:39:08;5.03;;;2.40;;
83199;SDS011;73092;49.132;8.920;2024-03-29T01:41:38;4.75;;;2.70;;
83199;SDS011;73092;49.132;8.920;2024-03-29T01:44:03;2.50;;;1.77;;
83199;SDS011;73092;49.132;8.920;2024-03-29T01:46:29;6.10;;;2.40;;
83199;SDS011;73092;49.132;8.920;2024-03-29T01:48:54;5.95;;;3.63;;
83199;SDS011;73092;49.132;8.920;2024-03-29T01:51:21;4.32;;;2.90;;
83199;SDS011;73092;49.132;8.920;2024-03-29T01:53:47;2.90;;;2.00;;
83199;SDS011;73092;49.132;8.920;2024-03-29T01:56:15;4.00;;;2.33;;
83199;SDS011;73092;49.132;8.920;2024-03-29T01:58:41;3.75;;;2.13;;
83199;SDS011;73092;49.132;8.920;2024-03-29T02:01:08;5.43;;;2.70;;
83199;SDS011;73092;49.132;8.920;2024-03-29T02:03:34;9.43;;;2.97;;
83199;SDS011;73092;49.132;8.920;2024-03-29T02:05:59;4.18;;;2.70;;
83199;SDS011;73092;49.132;8.920;2024-03-29T02:08:27;4.47;;;2.50;;
83199;SDS011;73092;49.132;8.920;2024-03-29T02:10:53;6.03;;;2.58;;
83199;SDS011;73092;49.132;8.920;2024-03-29T02:13:19;5.53;;;2.10;;
83199;SDS011;73092;49.132;8.920;2024-03-29T02:15:44;3.50;;;2.22;;
83199;SDS011;73092;49.132;8.920;2024-03-29T02:18:09;2.93;;;2.10;;
83199;SDS011;73092;49.132;8.920;2024-03-29T02:20:35;5.30;;;2.45;;
83199;SDS011;73092;49.132;8.920;2024-03-29T02:23:08;2.75;;;2.17;;
83199;SDS011;73092;49.132;8.920;2024-03-29T02:25:40;3.13;;;2.75;;
83199;SDS011;73092;49.132;8.920;2024-03-29T02:28:05;3.30;;;2.17;;
83199;SDS011;73092;49.132;8.920;2024-03-29T02:30:31;7.32;;;2.58;;
83199;SDS011;73092;49.132;8.920;2024-03-29T02:32:59;4.13;;;2.03;;
83199;SDS011;73092;49.132;8.920;2024-03-29T02:35:25;2.53;;;2.08;;
83199;SDS011;73092;49.132;8.920;2024-03-29T02:37:51;11.07;;;3.03;;
83199;SDS011;73092;49.132;8.920;2024-03-29T02:40:17;3.42;;;2.45;;
83199;SDS011;73092;49.132;8.920;2024-03-29T02:42:43;4.80;;;2.70;;
83199;SDS011;73092;49.132;8.920;2024-03-29T02:45:08;3.88;;;3.13;;
83199;SDS011;73092;49.132;8.920;2024-03-29T02:47:34;3.13;;;1.92;;
83199;SDS011;73092;49.132;8.920;2024-03-29T02:49:59;3.10;;;2.50;;
83199;SDS011;73092;49.132;8.920;2024-03-29T02:52:24;3.70;;;2.13;;
83199;SDS011;73092;49.132;8.920;2024-03-29T02:54:51;3.00;;;2.60;;
83199;SDS011;73092;49.132;8.920;2024-03-29T02:57:17;4.72;;;2.05;;
83199;SDS011;73092;49.132;8.920;2024-03-29T02:59:42;4.27;;;2.00;;
83199;SDS011;73092;49.132;8.920;2024-03-29T03:02:07;2.27;;;1.77;;
83199;SDS011;73092;49.132;8.920;2024-03-29T03:04:33;2.83;;;2.00;;
83199;SDS011;73092;49.132;8.920;2024-03-29T03:06:59;4.37;;;2.40;;
83199;SDS011;73092;49.132;8.920;2024-03-29T03:09:44;4.57;;;2.17;;
83199;SDS011;73092;49.132;8.920;2024-03-29T03:12:29;3.72;;;2.63;;
83199;SDS011;73092;49.132;8.920;2024-03-29T03:14:55;2.05;;;1.77;;
83199;SDS011;73092;49.132;8.920;2024-03-29T03:17:21;3.85;;;2.25;;
83199;SDS011;73092;49.132;8.920;2024-03-29T03:19:46;6.27;;;3.47;;
83199;SDS011;73092;49.132;8.920;2024-03-29T03:22:12;7.50;;;2.40;;
83199;SDS011;73092;49.132;8.920;2024-03-29T03:24:37;4.60;;;2.17;;
83199;SDS011;73092;49.132;8.920;2024-03-29T03:27:02;2.27;;;1.77;;
83199;SDS011;73092;49.132;8.920;2024-03-29T03:29:28;7.65;;;2.70;;
83199;SDS011;73092;49.132;8.920;2024-03-29T03:31:54;3.33;;;1.73;;
83199;SDS011;73092;49.132;8.920;2024-03-29T03:34:20;6.88;;;2.25;;
83199;SDS011;73092;49.132;8.920;2024-03-29T03:36:45;2.70;;;2.17;;
83199;SDS011;73092;49.132;8.920;2024-03-29T03:39:10;3.43;;;2.17;;
83199;SDS011;73092;49.132;8.920;2024-03-29T03:41:36;6.23;;;2.07;;
83199;SDS011;73092;49.132;8.920;2024-03-29T03:44:01;4.13;;;3.03;;
83199;SDS011;73092;49.132;8.920;2024-03-29T03:46:26;3.37;;;2.37;;
83199;SDS011;73092;49.132;8.920;2024-03-29T03:48:51;5.80;;;2.13;;
83199;SDS011;73092;49.132;8.920;2024-03-29T03:51:17;4.30;;;2.27;;
83199;SDS011;73092;49.132;8.920;2024-03-29T03:53:42;4.13;;;2.30;;
83199;SDS011;73092;49.132;8.920;2024-03-29T03:56:07;4.95;;;2.13;;
83199;SDS011;73092;49.132;8.920;2024-03-29T03:58:33;2.03;;;1.70;;
83199;SDS011;73092;49.132;8.920;2024-03-29T04:01:03;2.87;;;2.10;;
83199;SDS011;73092;49.132;8.920;2024-03-29T04:03:29;2.88;;;1.95;;
83199;SDS011;73092;49.132;8.920;2024-03-29T04:05:55;2.33;;;2.08;;
83199;SDS011;73092;49.132;8.920;2024-03-29T04:08:20;7.03;;;2.93;;
83199;SDS011;73092;49.132;8.920;2024-03-29T04:10:45;3.20;;;2.03;;
83199;SDS011;73092;49.132;8.920;2024-03-29T04:13:11;3.03;;;2.03;;
83199;SDS011;73092;49.132;8.920;2024-03-29T04:15:36;6.63;;;2.60;;
83199;SDS011;73092;49.132;8.920;2024-03-29T04:18:01;6.30;;;2.27;;
83199;SDS011;73092;49.132;8.920;2024-03-29T04:20:27;2.67;;;1.97;;
83199;SDS011;73092;49.132;8.920;2024-03-29T04:22:52;3.17;;;2.00;;
83199;SDS011;73092;49.132;8.920;2024-03-29T04:25:17;5.07;;;2.03;;
83199;SDS011;73092;49.132;8.920;2024-03-29T04:27:44;4.18;;;2.28;;
83199;SDS011;73092;49.132;8.920;2024-03-29T04:30:09;3.73;;;2.50;;
83199;SDS011;73092;49.132;8.920;2024-03-29T04:32:35;2.90;;;2.30;;
83199;SDS011;73092;49.132;8.920;2024-03-29T04:35:00;2.50;;;2.30;;
83199;SDS011;73092;49.132;8.920;2024-03-29T04:37:25;4.80;;;1.90;;
83199;SDS011;73092;49.132;8.920;2024-03-29T04:39:51;5.73;;;2.20;;
83199;SDS011;73092;49.132;8.920;2024-03-29T04:42:17;3.72;;;2.13;;
83199;SDS011;73092;49.132;8.920;2024-03-29T04:44:42;5.83;;;2.10;;
83199;SDS011;73092;49.132;8.920;2024-03-29T04:47:07;2.37;;;2.00;;
83199;SDS011;73092;49.132;8.920;2024-03-29T04:49:33;6.88;;;2.10;;
83199;SDS011;73092;49.132;8.920;2024-03-29T04:52:00;3.47;;;1.88;;
83199;SDS011;73092;49.132;8.920;2024-03-29T04:54:26;2.78;;;1.95;;
83199;SDS011;73092;49.132;8.920;2024-03-29T04:56:52;3.17;;;1.75;;
83199;SDS011;73092;49.132;8.920;2024-03-29T04:59:19;4.60;;;1.70;;
83199;SDS011;73092;49.132;8.920;2024-03-29T05:01:46;4.20;;;2.03;;
83199;SDS011;73092;49.132;8.920;2024-03-29T05:04:17;4.40;;;2.40;;
83199;SDS011;73092;49.132;8.920;2024-03-29T05:06:50;3.13;;;1.90;;
83199;SDS011;73092;49.132;8.920;2024-03-29T05:09:15;2.83;;;1.60;;
83199;SDS011;73092;49.132;8.920;2024-03-29T05:11:40;5.63;;;1.90;;
83199;SDS011;73092;49.132;8.920;2024-03-29T05:14:06;3.90;;;2.35;;
83199;SDS011;73092;49.132;8.920;2024-03-29T05:16:32;4.87;;;1.67;;
83199;SDS011;73092;49.132;8.920;2024-03-29T05:18:57;3.28;;;1.95;;
83199;SDS011;73092;49.132;8.920;2024-03-29T05:21:23;4.00;;;2.10;;
83199;SDS011;73092;49.132;8.920;2024-03-29T05:23:48;4.50;;;2.10;;
83199;SDS011;73092;49.132;8.920;2024-03-29T05:26:13;2.63;;;2.10;;
83199;SDS011;73092;49.132;8.920;2024-03-29T05:28:38;4.80;;;2.20;;
83199;SDS011;73092;49.132;8.920;2024-03-29T05:31:11;2.00;;;1.80;;
83199;SDS011;73092;49.132;8.920;2024-03-29T05:33:39;6.90;;;1.90;;
83199;SDS011;73092;49.132;8.920;2024-03-29T05:36:05;3.80;;;2.33;;
83199;SDS011;73092;49.132;8.920;2024-03-29T05:38:32;4.18;;;2.35;;
83199;SDS011;73092;49.132;8.920;2024-03-29T05:40:57;3.10;;;2.10;;
83199;SDS011;73092;49.132;8.920;2024-03-29T05:43:23;2.67;;;1.75;;
83199;SDS011;73092;49.132;8.920;2024-03-29T05:45:51;5.20;;;2.10;;
83199;SDS011;73092;49.132;8.920;2024-03-29T05:48:18;3.80;;;1.67;;
83199;SDS011;73092;49.132;8.920;2024-03-29T05:50:44;3.28;;;1.65;;
83199;SDS011;73092;49.132;8.920;2024-03-29T05:53:09;3.15;;;1.75;;
83199;SDS011;73092;49.132;8.920;2024-03-29T05:55:35;4.18;;;1.75;;
83199;SDS011;73092;49.132;8.920;2024-03-29T05:58:00;2.40;;;1.73;;
83199;SDS011;73092;49.132;8.920;2024-03-29T06:00:25;8.23;;;3.43;;
83199;SDS011;73092;49.132;8.920;2024-03-29T06:02:51;2.58;;;1.73;;
83199;SDS011;73092;49.132;8.920;2024-03-29T06:05:17;3.47;;;2.27;;
83199;SDS011;73092;49.132;8.920;2024-03-29T06:07:42;2.80;;;1.90;;
83199;SDS011;73092;49.132;8.920;2024-03-29T06:10:07;2.47;;;1.77;;
83199;SDS011;73092;49.132;8.920;2024-03-29T06:12:35;2.83;;;2.00;;
83199;SDS011;73092;49.132;8.920;2024-03-29T06:15:01;1.73;;;1.60;;
83199;SDS011;73092;49.132;8.920;2024-03-29T06:17:45;3.25;;;1.60;;
83199;SDS011;73092;49.132;8.920;2024-03-29T06:20:11;5.20;;;1.80;;
83199;SDS011;73092;49.132;8.920;2024-03-29T06:22:37;3.22;;;2.28;;
83199;SDS011;73092;49.132;8.920;2024-03-29T06:25:02;2.80;;;1.70;;
83199;SDS011;73092;49.132;8.920;2024-03-29T06:27:33;4.05;;;1.85;;
83199;SDS011;73092;49.132;8.920;2024-03-29T06:29:59;3.97;;;2.00;;
83199;SDS011;73092;49.132;8.920;2024-03-29T06:32:25;3.33;;;2.20;;
83199;SDS011;73092;49.132;8.920;2024-03-29T06:34:50;2.42;;;1.98;;
83199;SDS011;73092;49.132;8.920;2024-03-29T06:37:15;3.27;;;2.17;;
83199;SDS011;73092;49.132;8.920;2024-03-29T06:39:41;2.92;;;2.10;;
83199;SDS011;73092;49.132;8.920;2024-03-29T06:42:08;2.90;;;1.80;;
83199;SDS011;73092;49.132;8.920;2024-03-29T06:44:34;6.07;;;2.20;;
83199;SDS011;73092;49.132;8.920;2024-03-29T06:47:00;5.25;;;2.47;;
83199;SDS011;73092;49.132;8.920;2024-03-29T06:49:25;4.95;;;2.05;;
83199;SDS011;73092;49.132;8.920;2024-03-29T06:51:51;3.67;;;2.40;;
83199;SDS011;73092;49.132;8.920;2024-03-29T06:54:18;4.07;;;2.10;;
83199;SDS011;73092;49.132;8.920;2024-03-29T06:56:47;3.53;;;2.13;;
83199;SDS011;73092;49.132;8.920;2024-03-29T06:59:13;2.90;;;1.92;;
83199;SDS011;73092;49.132;8.920;2024-03-29T07:01:38;4.10;;;2.00;;
83199;SDS011;73092;49.132;8.920;2024-03-29T07:04:03;1.87;;;1.40;;
83199;SDS011;73092;49.132;8.920;2024-03-29T07:06:29;2.83;;;1.93;;
83199;SDS011;73092;49.132;8.920;2024-03-29T07:08:54;1.53;;;1.30;;
83199;SDS011;73092;49.132;8.920;2024-03-29T07:11:19;2.80;;;2.03;;
83199;SDS011;73092;49.132;8.920;2024-03-29T07:13:45;4.67;;;1.70;;
83199;SDS011;73092;49.132;8.920;2024-03-29T07:16:10;2.20;;;1.67;;
83199;SDS011;73092;49.132;8.920;2024-03-29T07:18:35;3.43;;;1.97;;
83199;SDS011;73092;49.132;8.920;2024-03-29T07:21:01;3.00;;;1.77;;
83199;SDS011;73092;49.132;8.920;2024-03-29T07:23:26;3.33;;;3.03;;
83199;SDS011;73092;49.132;8.920;2024-03-29T07:26:01;3.40;;;1.70;;
83199;SDS011;73092;49.132;8.920;2024-03-29T07:28:28;4.25;;;1.50;;
83199;SDS011;73092;49.132;8.920;2024-03-29T07:30:54;2.42;;;1.63;;
83199;SDS011;73092;49.132;8.920;2024-03-29T07:33:20;3.78;;;2.00;;
83199;SDS011;73092;49.132;8.920;2024-03-29T07:35:52;1.70;;;1.60;;
83199;SDS011;73092;49.132;8.920;2024-03-29T07:38:18;5.43;;;1.90;;
83199;SDS011;73092;49.132;8.920;2024-03-29T07:40:46;2.90;;;1.52;;
83199;SDS011;73092;49.132;8.920;2024-03-29T07:43:12;1.80;;;1.50;;
83199;SDS011;73092;49.132;8.920;2024-03-29T07:45:40;3.13;;;1.75;;
83199;SDS011;73092;49.132;8.920;2024-03-29T07:48:13;2.95;;;1.80;;
83199;SDS011;73092;49.132;8.920;2024-03-29T07:50:40;3.10;;;1.95;;
83199;SDS011;73092;49.132;8.920;2024-03-29T07:53:06;2.85;;;1.88;;
83199;SDS011;73092;49.132;8.920;2024-03-29T07:55:31;3.53;;;1.75;;
83199;SDS011;73092;49.132;8.920;2024-03-29T07:57:57;8.38;;;2.28;;
83199;SDS011;73092;49.132;8.920;2024-03-29T08:00:23;2.88;;;1.95;;
83199;SDS011;73092;49.132;8.920;2024-03-29T08:02:48;5.82;;;1.90;;
83199;SDS011;73092;49.132;8.920;2024-03-29T08:05:15;7.85;;;2.20;;
83199;SDS011;73092;49.132;8.920;2024-03-29T08:07:40;7.90;;;2.70;;
83199;SDS011;73092;49.132;8.920;2024-03-29T08:10:06;3.33;;;2.13;;
83199;SDS011;73092;49.132;8.920;2024-03-29T08:12:32;7.22;;;2.38;;
83199;SDS011;73092;49.132;8.920;2024-03-29T08:14:58;3.63;;;2.60;;
83199;SDS011;73092;49.132;8.920;2024-03-29T08:17:23;4.78;;;2.75;;
83199;SDS011;73092;49.132;8.920;2024-03-29T08:19:49;3.95;;;2.05;;
83199;SDS011;73092;49.132;8.920;2024-03-29T08:22:15;3.33;;;2.08;;
83199;SDS011;73092;49.132;8.920;2024-03-29T08:24:40;6.13;;;3.00;;
83199;SDS011;73092;49.132;8.920;2024-03-29T08:27:06;4.93;;;3.13;;
83199;SDS011;73092;49.132;8.920;2024-03-29T08:29:31;6.53;;;2.13;;
83199;SDS011;73092;49.132;8.920;2024-03-29T08:31:57;5.40;;;1.90;;
83199;SDS011;73092;49.132;8.920;2024-03-29T08:34:22;3.90;;;2.35;;
83199;SDS011;73092;49.132;8.920;2024-03-29T08:36:48;3.07;;;2.57;;
83199;SDS011;73092;49.132;8.920;2024-03-29T08:39:13;6.20;;;1.90;;
83199;SDS011;73092;49.132;8.920;2024-03-29T08:41:38;6.10;;;2.22;;
83199;SDS011;73092;49.132;8.920;2024-03-29T08:44:04;4.17;;;2.23;;
83199;SDS011;73092;49.132;8.920;2024-03-29T08:46:30;5.80;;;2.45;;
83199;SDS011;73092;49.132;8.920;2024-03-29T08:48:55;6.30;;;3.13;;
83199;SDS011;73092;49.132;8.920;2024-03-29T08:51:21;4.60;;;2.17;;
83199;SDS011;73092;49.132;8.920;2024-03-29T08:53:46;3.03;;;2.00;;
83199;SDS011;73092;49.132;8.920;2024-03-29T08:56:12;2.20;;;2.00;;
83199;SDS011;73092;49.132;8.920;2024-03-29T08:58:38;6.13;;;2.63;;
83199;SDS011;73092;49.132;8.920;2024-03-29T09:01:04;6.93;;;2.90;;
83199;SDS011;73092;49.132;8.920;2024-03-29T09:03:29;2.90;;;2.10;;
83199;SDS011;73092;49.132;8.920;2024-03-29T09:05:55;4.22;;;2.83;;
83199;SDS011;73092;49.132;8.920;2024-03-29T09:08:20;6.95;;;2.50;;
83199;SDS011;73092;49.132;8.920;2024-03-29T09:10:46;4.90;;;2.83;;
83199;SDS011;73092;49.132;8.920;2024-03-29T09:13:11;6.00;;;2.63;;
83199;SDS011;73092;49.132;8.920;2024-03-29T09:15:37;5.40;;;2.78;;
83199;SDS011;73092;49.132;8.920;2024-03-29T09:18:03;4.10;;;2.42;;
83199;SDS011;73092;49.132;8.920;2024-03-29T09:20:38;4.40;;;2.45;;
83199;SDS011;73092;49.132;8.920;2024-03-29T09:23:04;6.45;;;2.42;;
83199;SDS011;73092;49.132;8.920;2024-03-29T09:25:30;3.60;;;2.88;;
83199;SDS011;73092;49.132;8.920;2024-03-29T09:27:57;3.25;;;2.30;;
83199;SDS011;73092;49.132;8.920;2024-03-29T09:30:22;5.25;;;2.50;;
83199;SDS011;73092;49.132;8.920;2024-03-29T09:32:48;5.97;;;2.75;;
83199;SDS011;73092;49.132;8.920;2024-03-29T09:35:15;2.97;;;2.17;;
83199;SDS011;73092;49.132;8.920;2024-03-29T09:37:41;2.33;;;1.95;;
83199;SDS011;73092;49.132;8.920;2024-03-29T09:40:07;7.65;;;2.47;;
83199;SDS011;73092;49.132;8.920;2024-03-29T09:42:35;4.05;;;2.30;;
83199;SDS011;73092;49.132;8.920;2024-03-29T09:45:03;5.60;;;2.20;;
83199;SDS011;73092;49.132;8.920;2024-03-29T09:47:31;3.03;;;2.25;;
83199;SDS011;73092;49.132;8.920;2024-03-29T09:50:02;4.47;;;2.25;;
83199;SDS011;73092;49.132;8.920;2024-03-29T09:52:33;4.95;;;2.13;;
83199;SDS011;73092;49.132;8.920;2024-03-29T09:54:59;9.68;;;2.38;;
83199;SDS011;73092;49.132;8.920;2024-03-29T09:57:25;3.03;;;2.22;;
83199;SDS011;73092;49.132;8.920;2024-03-29T09:59:54;5.32;;;2.45;;
83199;SDS011;73092;49.132;8.920;2024-03-29T10:02:20;9.05;;;3.00;;
83199;SDS011;73092;49.132;8.920;2024-03-29T10:04:48;11.18;;;2.30;;
83199;SDS011;73092;49.132;8.920;2024-03-29T10:07:16;9.00;;;3.28;;
83199;SDS011;73092;49.132;8.920;2024-03-29T10:09:42;6.80;;;2.97;;
83199;SDS011;73092;49.132;8.920;2024-03-29T10:12:09;5.20;;;2.17;;
83199;SDS011;73092;49.132;8.920;2024-03-29T10:14:47;6.17;;;3.00;;
83199;SDS011;73092;49.132;8.920;2024-03-29T10:17:28;10.20;;;3.22;;
83199;SDS011;73092;49.132;8.920;2024-03-29T10:19:53;4.77;;;2.20;;
83199;SDS011;73092;49.132;8.920;2024-03-29T10:22:18;4.73;;;2.43;;
83199;SDS011;73092;49.132;8.920;2024-03-29T10:24:44;4.23;;;2.13;;
83199;SDS011;73092;49.132;8.920;2024-03-29T10:27:09;5.68;;;2.55;;
83199;SDS011;73092;49.132;8.920;2024-03-29T10:29:36;5.78;;;2.80;;
83199;SDS011;73092;49.132;8.920;2024-03-29T10:32:01;6.13;;;3.70;;
83199;SDS011;73092;49.132;8.920;2024-03-29T10:34:28;5.32;;;2.10;;
83199;SDS011;73092;49.132;8.920;2024-03-29T10:36:59;5.18;;;2.03;;
83199;SDS011;73092;49.132;8.920;2024-03-29T10:39:30;3.58;;;2.03;;
83199;SDS011;73092;49.132;8.920;2024-03-29T10:41:59;2.58;;;1.90;;
83199;SDS011;73092;49.132;8.920;2024-03-29T10:44:25;3.90;;;1.55;;
83199;SDS011;73092;49.132;8.920;2024-03-29T10:46:51;3.72;;;2.20;;
83199;SDS011;73092;49.132;8.920;2024-03-29T10:49:18;3.72;;;2.55;;
83199;SDS011;73092;49.132;8.920;2024-03-29T10:51:45;4.50;;;3.03;;
83199;SDS011;73092;49.132;8.920;2024-03-29T10:54:11;5.72;;;3.50;;
83199;SDS011;73092;49.132;8.920;2024-03-29T10:56:39;9.00;;;4.22;;
83199;SDS011;73092;49.132;8.920;2024-03-29T10:59:16;11.82;;;3.78;;
83199;SDS011;73092;49.132;8.920;2024-03-29T11:01:49;9.07;;;4.32;;
83199;SDS011;73092;49.132;8.920;2024-03-29T11:04:22;8.85;;;5.22;;
83199;SDS011;73092;49.132;8.920;2024-03-29T11:06:51;8.60;;;3.60;;
83199;SDS011;73092;49.132;8.920;2024-03-29T11:09:19;5.03;;;3.40;;
83199;SDS011;73092;49.132;8.920;2024-03-29T11:11:46;5.57;;;2.83;;
83199;SDS011;73092;49.132;8.920;2024-03-29T11:14:16;6.70;;;2.58;;
83199;SDS011;73092;49.132;8.920;2024-03-29T11:16:52;4.43;;;2.33;;
83199;SDS011;73092;49.132;8.920;2024-03-29T11:19:24;4.18;;;2.25;;
83199;SDS011;73092;49.132;8.920;2024-03-29T11:21:50;4.63;;;2.30;;
83199;SDS011;73092;49.132;8.920;2024-03-29T11:24:16;5.93;;;2.08;;
83199;SDS011;73092;49.132;8.920;2024-03-29T11:26:44;4.57;;;1.83;;
83199;SDS011;73092;49.132;8.920;2024-03-29T11:29:17;2.50;;;1.95;;
83199;SDS011;73092;49.132;8.920;2024-03-29T11:31:45;2.20;;;1.75;;
83199;SDS011;73092;49.132;8.920;2024-03-29T11:34:12;4.00;;;2.10;;
83199;SDS011;73092;49.132;8.920;2024-03-29T11:36:38;3.45;;;1.80;;
83199;SDS011;73092;49.132;8.920;2024-03-29T11:39:07;7.60;;;2.13;;
83199;SDS011;73092;49.132;8.920;2024-03-29T11:41:46;3.58;;;1.70;;
83199;SDS011;73092;49.132;8.920;2024-03-29T11:44:13;6.30;;;1.83;;
83199;SDS011;73092;49.132;8.920;2024-03-29T11:46:39;11.32;;;2.63;;
83199;SDS011;73092;49.132;8.920;2024-03-29T11:49:05;6.95;;;2.55;;
83199;SDS011;73092;49.132;8.920;2024-03-29T11:51:31;9.02;;;3.05;;
83199;SDS011;73092;49.132;8.920;2024-03-29T11:53:57;5.57;;;3.10;;
83199;SDS011;73092;49.132;8.920;2024-03-29T11:56:22;5.78;;;3.17;;
83199;SDS011;73092;49.132;8.920;2024-03-29T11:58:50;11.55;;;3.63;;
83199;SDS011;73092;49.132;8.920;2024-03-29T12:01:15;7.17;;;3.77;;
83199;SDS011;73092;49.132;8.920;2024-03-29T12:03:42;4.18;;;3.00;;
83199;SDS011;73092;49.132;8.920;2024-03-29T12:06:13;9.20;;;3.88;;
83199;SDS011;73092;49.132;8.920;2024-03-29T12:08:40;4.82;;;3.45;;
83199;SDS011;73092;49.132;8.920;2024-03-29T12:11:07;8.13;;;3.72;;
83199;SDS011;73092;49.132;8.920;2024-03-29T12:13:36;6.22;;;3.70;;
83199;SDS011;73092;49.132;8.920;2024-03-29T12:16:01;8.02;;;3.85;;
83199;SDS011;73092;49.132;8.920;2024-03-29T12:18:28;6.68;;;3.85;;
83199;SDS011;73092;49.132;8.920;2024-03-29T12:20:59;10.57;;;4.75;;
83199;SDS011;73092;49.132;8.920;2024-03-29T12:23:25;8.80;;;4.00;;
83199;SDS011;73092;49.132;8.920;2024-03-29T12:25:51;13.15;;;3.70;;
83199;SDS011;73092;49.132;8.920;2024-03-29T12:28:23;4.72;;;2.80;;
83199;SDS011;73092;49.132;8.920;2024-03-29T12:30:49;8.80;;;3.25;;
83199;SDS011;73092;49.132;8.920;2024-03-29T12:33:16;6.85;;;3.13;;
83199;SDS011;73092;49.132;8.920;2024-03-29T12:35:52;6.95;;;3.25;;
83199;SDS011;73092;49.132;8.920;2024-03-29T12:38:20;7.40;;;3.20;;
83199;SDS011;73092;49.132;8.920;2024-03-29T12:40:47;5.65;;;3.42;;
83199;SDS011;73092;49.132;8.920;2024-03-29T12:43:22;7.97;;;3.25;;
83199;SDS011;73092;49.132;8.920;2024-03-29T12:45:48;5.43;;;2.90;;
83199;SDS011;73092;49.132;8.920;2024-03-29T12:48:20;6.35;;;3.00;;
83199;SDS011;73092;49.132;8.920;2024-03-29T12:50:48;4.93;;;2.88;;
83199;SDS011;73092;49.132;8.920;2024-03-29T12:53:16;4.55;;;2.85;;
83199;SDS011;73092;49.132;8.920;2024-03-29T12:55:46;7.10;;;3.13;;
83199;SDS011;73092;49.132;8.920;2024-03-29T12:58:16;9.70;;;4.07;;
83199;SDS011;73092;49.132;8.920;2024-03-29T13:00:48;8.23;;;4.13;;
83199;SDS011;73092;49.132;8.920;2024-03-29T13:03:15;13.93;;;4.15;;
83199;SDS011;73092;49.132;8.920;2024-03-29T13:05:41;9.50;;;3.47;;
83199;SDS011;73092;49.132;8.920;2024-03-29T13:08:11;8.13;;;3.15;;
83199;SDS011;73092;49.132;8.920;2024-03-29T13:10:37;7.60;;;3.42;;
83199;SDS011;73092;49.132;8.920;2024-03-29T13:13:04;6.93;;;3.90;;
83199;SDS011;73092;49.132;8.920;2024-03-29T13:15:32;10.48;;;3.38;;
83199;SDS011;73092;49.132;8.920;2024-03-29T13:17:58;7.28;;;3.35;;
83199;SDS011;73092;49.132;8.920;2024-03-29T13:20:25;8.88;;;2.90;;
83199;SDS011;73092;49.132;8.920;2024-03-29T13:22:51;5.82;;;3.10;;
83199;SDS011;73092;49.132;8.920;2024-03-29T13:25:19;7.15;;;3.75;;
83199;SDS011;73092;49.132;8.920;2024-03-29T13:27:48;12.30;;;3.95;;
83199;SDS011;73092;49.132;8.920;2024-03-29T13:30:18;10.25;;;3.88;;
83199;SDS011;73092;49.132;8.920;2024-03-29T13:32:44;7.30;;;4.18;;
83199;SDS011;73092;49.132;8.920;2024-03-29T13:35:10;12.30;;;4.50;;
83199;SDS011;73092;49.132;8.920;2024-03-29T13:37:40;6.55;;;4.22;;
83199;SDS011;73092;49.132;8.920;2024-03-29T13:40:11;10.05;;;4.43;;
83199;SDS011;73092;49.132;8.920;2024-03-29T13:42:37;9.77;;;5.30;;
83199;SDS011;73092;49.132;8.920;2024-03-29T13:45:03;8.93;;;5.05;;
83199;SDS011;73092;49.132;8.920;2024-03-29T13:47:30;7.47;;;4.47;;
83199;SDS011;73092;49.132;8.920;2024-03-29T13:49:57;15.95;;;6.70;;
83199;SDS011;73092;49.132;8.920;2024-03-29T13:52:23;8.23;;;5.20;;
83199;SDS011;73092;49.132;8.920;2024-03-29T13:54:49;9.20;;;4.10;;
83199;SDS011;73092;49.132;8.920;2024-03-29T13:57:18;6.90;;;4.25;;
83199;SDS011;73092;49.132;8.920;2024-03-29T13:59:47;9.90;;;3.95;;
83199;SDS011;73092;49.132;8.920;2024-03-29T14:02:17;11.70;;;3.53;;
83199;SDS011;73092;49.132;8.920;2024-03-29T14:04:43;5.20;;;3.10;;
83199;SDS011;73092;49.132;8.920;2024-03-29T14:07:10;7.93;;;3.17;;
83199;SDS011;73092;49.132;8.920;2024-03-29T14:09:40;6.32;;;3.03;;
83199;SDS011;73092;49.132;8.920;2024-03-29T14:12:07;12.30;;;3.92;;
83199;SDS011;73092;49.132;8.920;2024-03-29T14:14:34;9.32;;;3.75;;
83199;SDS011;73092;49.132;8.920;2024-03-29T14:17:00;10.52;;;4.07;;
83199;SDS011;73092;49.132;8.920;2024-03-29T14:19:29;7.28;;;4.55;;
83199;SDS011;73092;49.132;8.920;2024-03-29T14:21:59;12.25;;;4.50;;
83199;SDS011;73092;49.132;8.920;2024-03-29T14:24:25;8.10;;;3.80;;
83199;SDS011;73092;49.132;8.920;2024-03-29T14:26:51;9.03;;;4.73;;
83199;SDS011;73092;49.132;8.920;2024-03-29T14:29:17;9.20;;;4.30;;
83199;SDS011;73092;49.132;8.920;2024-03-29T14:31:45;9.60;;;3.70;;
83199;SDS011;73092;49.132;8.920;2024-03-29T14:34:13;7.65;;;4.18;;
83199;SDS011;73092;49.132;8.920;2024-03-29T14:36:39;7.20;;;4.20;;
83199;SDS011;73092;49.132;8.920;2024-03-29T14:39:04;5.97;;;4.10;;
83199;SDS011;73092;49.132;8.920;2024-03-29T14:41:31;7.07;;;4.05;;
83199;SDS011;73092;49.132;8.920;2024-03-29T14:44:00;5.90;;;3.80;;
83199;SDS011;73092;49.132;8.920;2024-03-29T14:46:26;9.17;;;4.40;;
83199;SDS011;73092;49.132;8.920;2024-03-29T14:48:51;6.10;;;4.27;;